Eiwa Maru No.2 — JG5333 — position and weather

sailwx.info

Track history (hours):
 
Tides and Currents Weather Stations Pressure Air Temp Water Temp Dewpoint Dewpoint Depression Visibility Wind Speed Wind Dir Waves Ship Positions

Eiwa Maru No.2

Last reported at 2017-Oct-18 13:32 UTC. Time now 2017-Oct-18 20:37 UTC.
Position N 34°23' E 135°10'.

Length 65 m; draft 2 m.

Type: Tanker. MMSI: 431400355.

Date/timePositionNaut miles runAvg speedWind from/ knotsBaromVisibWave heightAir tempDewpointWater temp
2017-Oct-18 13:32N 34°23' E 135°10'0 0.0
2017-Oct-18 13:02N 34°23' E 135°10'0 0.0
2017-Oct-18 12:38N 34°23' E 135°10'0 0.0
2017-Oct-18 12:14N 34°23' E 135°10'0 0.0
2017-Oct-18 11:56N 34°23' E 135°10'0 0.0
2017-Oct-18 11:26N 34°23' E 135°10'0 0.0
2017-Oct-18 06:15N 34°23' E 135°10'0 0.0
2017-Oct-18 05:50N 34°23' E 135°10'0 0.0
2017-Oct-18 05:29N 34°23' E 135°10'2 4.1
2017-Oct-18 04:53N 34°25' E 135°08'511.2
2017-Oct-18 04:25N 34°30' E 135°06'511.6
2017-Oct-18 04:00N 34°34' E 135°04'  
2017-Oct-12 14:03N 34°48' E 139°07'111.8
2017-Oct-12 13:59N 34°48' E 139°08'612.0
2017-Oct-12 13:29N 34°53' E 139°12'1110.0
2017-Oct-12 12:24N 34°59' E 139°23'5 9.9
2017-Oct-12 11:55N 35°01' E 139°28'410.4
2017-Oct-12 11:30N 35°03' E 139°33'510.5
2017-Oct-12 11:00N 35°06' E 139°39'510.3
2017-Oct-12 10:30N 35°09' E 139°44'510.6
2017-Oct-12 10:00N 35°14' E 139°46'611.0
2017-Oct-12 09:30N 35°19' E 139°43'611.3
2017-Oct-12 09:00N 35°24' E 139°43'5 9.7
2017-Oct-12 08:30N 35°29' E 139°41'0 0.8
2017-Oct-12 08:00N 35°29' E 139°41'0 0.0
2017-Oct-12 07:30N 35°29' E 139°41'0 0.0
2017-Oct-12 07:00N 35°29' E 139°41'0 0.0
2017-Oct-12 06:29N 35°29' E 139°41'0 0.0
2017-Oct-12 05:59N 35°29' E 139°41'0 0.0
2017-Oct-12 05:29N 35°29' E 139°41'0 0.0
2017-Oct-12 04:59N 35°29' E 139°41'0 0.0
2017-Oct-12 04:29N 35°29' E 139°41'0 0.0
2017-Oct-12 03:59N 35°29' E 139°41'0 0.0
2017-Oct-12 03:29N 35°29' E 139°41'0 0.0
2017-Oct-12 02:59N 35°29' E 139°41'0 0.0
2017-Oct-12 02:26N 35°29' E 139°41'0 0.0
2017-Oct-12 01:59N 35°29' E 139°41'0 0.0
2017-Oct-12 01:29N 35°29' E 139°41'1 1.6
2017-Oct-12 01:00N 35°29' E 139°41'5 9.3
2017-Oct-12 00:28N 35°24' E 139°44'  
Track history (hours):
 
Tides and Currents Weather Stations Pressure Air Temp Water Temp Dewpoint Dewpoint Depression Visibility Wind Speed Wind Dir Waves Ship Positions

Eiwa Maru No.2

Last reported at 2017-Oct-18 13:32 UTC. Time now 2017-Oct-18 20:37 UTC.
Position N 34°23' E 135°10'.

Length 65 m; draft 2 m.

Type: Tanker. MMSI: 431400355.

Date/timePositionNaut miles runAvg speedWind from/ knotsBaromVisibWave heightAir tempDewpointWater temp
2017-Oct-18 13:32N 34°23' E 135°10'0 0.0
2017-Oct-18 13:02N 34°23' E 135°10'0 0.0
2017-Oct-18 12:38N 34°23' E 135°10'0 0.0
2017-Oct-18 12:14N 34°23' E 135°10'0 0.0
2017-Oct-18 11:56N 34°23' E 135°10'0 0.0
2017-Oct-18 11:26N 34°23' E 135°10'0 0.0
2017-Oct-18 06:15N 34°23' E 135°10'0 0.0
2017-Oct-18 05:50N 34°23' E 135°10'0 0.0
2017-Oct-18 05:29N 34°23' E 135°10'2 4.1
2017-Oct-18 04:53N 34°25' E 135°08'511.2
2017-Oct-18 04:25N 34°30' E 135°06'511.6
2017-Oct-18 04:00N 34°34' E 135°04'  
2017-Oct-12 14:03N 34°48' E 139°07'111.8
2017-Oct-12 13:59N 34°48' E 139°08'612.0
2017-Oct-12 13:29N 34°53' E 139°12'1110.0
2017-Oct-12 12:24N 34°59' E 139°23'5 9.9
2017-Oct-12 11:55N 35°01' E 139°28'410.4
2017-Oct-12 11:30N 35°03' E 139°33'510.5
2017-Oct-12 11:00N 35°06' E 139°39'510.3
2017-Oct-12 10:30N 35°09' E 139°44'510.6
2017-Oct-12 10:00N 35°14' E 139°46'611.0
2017-Oct-12 09:30N 35°19' E 139°43'611.3
2017-Oct-12 09:00N 35°24' E 139°43'5 9.7
2017-Oct-12 08:30N 35°29' E 139°41'0 0.8
2017-Oct-12 08:00N 35°29' E 139°41'0 0.0
2017-Oct-12 07:30N 35°29' E 139°41'0 0.0
2017-Oct-12 07:00N 35°29' E 139°41'0 0.0
2017-Oct-12 06:29N 35°29' E 139°41'0 0.0
2017-Oct-12 05:59N 35°29' E 139°41'0 0.0
2017-Oct-12 05:29N 35°29' E 139°41'0 0.0
2017-Oct-12 04:59N 35°29' E 139°41'0 0.0
2017-Oct-12 04:29N 35°29' E 139°41'0 0.0
2017-Oct-12 03:59N 35°29' E 139°41'0 0.0
2017-Oct-12 03:29N 35°29' E 139°41'0 0.0
2017-Oct-12 02:59N 35°29' E 139°41'0 0.0
2017-Oct-12 02:26N 35°29' E 139°41'0 0.0
2017-Oct-12 01:59N 35°29' E 139°41'0 0.0
2017-Oct-12 01:29N 35°29' E 139°41'1 1.6
2017-Oct-12 01:00N 35°29' E 139°41'5 9.3
2017-Oct-12 00:28N 35°24' E 139°44'  

Dump ship's entire track history